sensor_id;sensor_type;location;lat;lon;timestamp;P1;durP1;ratioP1;P2;durP2;ratioP2
55148;SDS011;49539;48.160;11.530;2023-04-28T00:00:39;5.45;;;2.88;;
55148;SDS011;49539;48.160;11.530;2023-04-28T00:03:04;4.07;;;2.55;;
55148;SDS011;49539;48.160;11.530;2023-04-28T00:05:30;6.25;;;2.50;;
55148;SDS011;49539;48.160;11.530;2023-04-28T00:07:55;4.65;;;2.50;;
55148;SDS011;49539;48.160;11.530;2023-04-28T00:10:21;3.97;;;2.15;;
55148;SDS011;49539;48.160;11.530;2023-04-28T00:12:46;5.45;;;2.40;;
55148;SDS011;49539;48.160;11.530;2023-04-28T00:15:11;4.55;;;2.58;;
55148;SDS011;49539;48.160;11.530;2023-04-28T00:17:37;5.50;;;2.38;;
55148;SDS011;49539;48.160;11.530;2023-04-28T00:20:02;3.78;;;2.08;;
55148;SDS011;49539;48.160;11.530;2023-04-28T00:22:28;7.00;;;2.47;;
55148;SDS011;49539;48.160;11.530;2023-04-28T00:24:53;3.40;;;2.42;;
55148;SDS011;49539;48.160;11.530;2023-04-28T00:27:19;5.13;;;2.17;;
55148;SDS011;49539;48.160;11.530;2023-04-28T00:29:44;6.15;;;2.38;;
55148;SDS011;49539;48.160;11.530;2023-04-28T00:32:10;3.42;;;2.03;;
55148;SDS011;49539;48.160;11.530;2023-04-28T00:34:35;3.88;;;1.92;;
55148;SDS011;49539;48.160;11.530;2023-04-28T00:37:01;3.90;;;2.28;;
55148;SDS011;49539;48.160;11.530;2023-04-28T00:39:27;4.38;;;2.45;;
55148;SDS011;49539;48.160;11.530;2023-04-28T00:41:54;2.75;;;1.80;;
55148;SDS011;49539;48.160;11.530;2023-04-28T00:44:20;4.88;;;2.38;;
55148;SDS011;49539;48.160;11.530;2023-04-28T00:46:45;3.72;;;1.90;;
55148;SDS011;49539;48.160;11.530;2023-04-28T00:49:11;3.72;;;1.83;;
55148;SDS011;49539;48.160;11.530;2023-04-28T00:51:36;3.25;;;2.03;;
55148;SDS011;49539;48.160;11.530;2023-04-28T00:54:01;2.92;;;1.85;;
55148;SDS011;49539;48.160;11.530;2023-04-28T00:56:27;4.25;;;2.35;;
55148;SDS011;49539;48.160;11.530;2023-04-28T00:58:55;3.65;;;2.10;;
55148;SDS011;49539;48.160;11.530;2023-04-28T01:01:20;5.40;;;2.17;;
55148;SDS011;49539;48.160;11.530;2023-04-28T01:03:46;3.20;;;1.90;;
55148;SDS011;49539;48.160;11.530;2023-04-28T01:06:11;4.90;;;2.35;;
55148;SDS011;49539;48.160;11.530;2023-04-28T01:08:37;3.53;;;1.70;;
55148;SDS011;49539;48.160;11.530;2023-04-28T01:11:03;2.42;;;1.83;;
55148;SDS011;49539;48.160;11.530;2023-04-28T01:13:29;2.88;;;1.77;;
55148;SDS011;49539;48.160;11.530;2023-04-28T01:15:54;4.38;;;2.20;;
55148;SDS011;49539;48.160;11.530;2023-04-28T01:18:20;3.88;;;2.20;;
55148;SDS011;49539;48.160;11.530;2023-04-28T01:20:45;4.43;;;2.00;;
55148;SDS011;49539;48.160;11.530;2023-04-28T01:23:14;4.38;;;2.10;;
55148;SDS011;49539;48.160;11.530;2023-04-28T01:25:40;2.83;;;1.70;;
55148;SDS011;49539;48.160;11.530;2023-04-28T01:28:06;3.85;;;2.20;;
55148;SDS011;49539;48.160;11.530;2023-04-28T01:30:31;5.20;;;2.05;;
55148;SDS011;49539;48.160;11.530;2023-04-28T01:32:56;4.82;;;2.10;;
55148;SDS011;49539;48.160;11.530;2023-04-28T01:35:22;6.47;;;1.90;;
55148;SDS011;49539;48.160;11.530;2023-04-28T01:37:47;4.22;;;1.90;;
55148;SDS011;49539;48.160;11.530;2023-04-28T01:40:13;3.42;;;1.98;;
55148;SDS011;49539;48.160;11.530;2023-04-28T01:42:38;5.28;;;2.03;;
55148;SDS011;49539;48.160;11.530;2023-04-28T01:45:03;4.13;;;2.10;;
55148;SDS011;49539;48.160;11.530;2023-04-28T01:47:29;4.07;;;2.00;;
55148;SDS011;49539;48.160;11.530;2023-04-28T01:49:54;4.03;;;2.00;;
55148;SDS011;49539;48.160;11.530;2023-04-28T01:52:20;4.47;;;2.00;;
55148;SDS011;49539;48.160;11.530;2023-04-28T01:54:47;4.97;;;2.00;;
55148;SDS011;49539;48.160;11.530;2023-04-28T01:57:12;4.10;;;2.10;;
55148;SDS011;49539;48.160;11.530;2023-04-28T01:59:38;2.38;;;1.65;;
55148;SDS011;49539;48.160;11.530;2023-04-28T02:02:03;3.35;;;1.70;;
55148;SDS011;49539;48.160;11.530;2023-04-28T02:04:28;4.05;;;2.10;;
55148;SDS011;49539;48.160;11.530;2023-04-28T02:06:53;2.83;;;1.50;;
55148;SDS011;49539;48.160;11.530;2023-04-28T02:09:19;3.63;;;1.80;;
55148;SDS011;49539;48.160;11.530;2023-04-28T02:11:44;3.90;;;1.95;;
55148;SDS011;49539;48.160;11.530;2023-04-28T02:14:09;2.47;;;1.52;;
55148;SDS011;49539;48.160;11.530;2023-04-28T02:16:35;4.70;;;1.90;;
55148;SDS011;49539;48.160;11.530;2023-04-28T02:19:00;2.78;;;1.58;;
55148;SDS011;49539;48.160;11.530;2023-04-28T02:21:26;11.10;;;2.50;;
55148;SDS011;49539;48.160;11.530;2023-04-28T02:23:51;5.30;;;2.17;;
55148;SDS011;49539;48.160;11.530;2023-04-28T02:26:17;3.60;;;1.83;;
55148;SDS011;49539;48.160;11.530;2023-04-28T02:28:42;4.15;;;2.03;;
55148;SDS011;49539;48.160;11.530;2023-04-28T02:31:08;3.55;;;1.65;;
55148;SDS011;49539;48.160;11.530;2023-04-28T02:33:35;4.45;;;2.08;;
55148;SDS011;49539;48.160;11.530;2023-04-28T02:36:01;3.60;;;1.70;;
55148;SDS011;49539;48.160;11.530;2023-04-28T02:38:27;3.20;;;1.60;;
55148;SDS011;49539;48.160;11.530;2023-04-28T02:43:24;5.03;;;1.80;;
55148;SDS011;49539;48.160;11.530;2023-04-28T02:45:49;4.82;;;2.05;;
55148;SDS011;49539;48.160;11.530;2023-04-28T02:48:15;3.40;;;1.80;;
55148;SDS011;49539;48.160;11.530;2023-04-28T02:50:40;3.42;;;1.90;;
55148;SDS011;49539;48.160;11.530;2023-04-28T02:53:06;4.17;;;1.97;;
55148;SDS011;49539;48.160;11.530;2023-04-28T02:55:31;3.22;;;2.08;;
55148;SDS011;49539;48.160;11.530;2023-04-28T02:57:56;3.47;;;2.20;;
55148;SDS011;49539;48.160;11.530;2023-04-28T03:00:22;3.65;;;1.90;;
55148;SDS011;49539;48.160;11.530;2023-04-28T03:02:47;4.40;;;2.35;;
55148;SDS011;49539;48.160;11.530;2023-04-28T03:05:12;6.53;;;2.50;;
55148;SDS011;49539;48.160;11.530;2023-04-28T03:07:37;3.78;;;1.83;;
55148;SDS011;49539;48.160;11.530;2023-04-28T03:10:03;3.83;;;2.10;;
55148;SDS011;49539;48.160;11.530;2023-04-28T03:12:28;3.53;;;1.77;;
55148;SDS011;49539;48.160;11.530;2023-04-28T03:14:53;3.97;;;2.20;;
55148;SDS011;49539;48.160;11.530;2023-04-28T03:17:19;3.47;;;1.83;;
55148;SDS011;49539;48.160;11.530;2023-04-28T03:19:44;3.33;;;1.80;;
55148;SDS011;49539;48.160;11.530;2023-04-28T03:22:09;5.68;;;2.10;;
55148;SDS011;49539;48.160;11.530;2023-04-28T03:24:35;3.42;;;1.55;;
55148;SDS011;49539;48.160;11.530;2023-04-28T03:27:00;4.05;;;1.70;;
55148;SDS011;49539;48.160;11.530;2023-04-28T03:29:28;5.47;;;1.80;;
55148;SDS011;49539;48.160;11.530;2023-04-28T03:31:53;3.63;;;2.05;;
55148;SDS011;49539;48.160;11.530;2023-04-28T03:34:19;2.75;;;1.80;;
55148;SDS011;49539;48.160;11.530;2023-04-28T03:36:44;3.40;;;2.25;;
55148;SDS011;49539;48.160;11.530;2023-04-28T03:39:10;6.72;;;1.90;;
55148;SDS011;49539;48.160;11.530;2023-04-28T03:41:35;3.22;;;1.63;;
55148;SDS011;49539;48.160;11.530;2023-04-28T03:44:00;2.53;;;1.50;;
55148;SDS011;49539;48.160;11.530;2023-04-28T03:46:26;4.30;;;1.90;;
55148;SDS011;49539;48.160;11.530;2023-04-28T03:48:51;3.17;;;1.90;;
55148;SDS011;49539;48.160;11.530;2023-04-28T03:51:17;3.40;;;1.67;;
55148;SDS011;49539;48.160;11.530;2023-04-28T03:53:42;4.70;;;2.22;;
55148;SDS011;49539;48.160;11.530;2023-04-28T03:56:08;3.75;;;1.92;;
55148;SDS011;49539;48.160;11.530;2023-04-28T03:58:34;5.32;;;2.05;;
55148;SDS011;49539;48.160;11.530;2023-04-28T04:00:59;3.03;;;2.00;;
55148;SDS011;49539;48.160;11.530;2023-04-28T04:03:24;4.45;;;2.00;;
55148;SDS011;49539;48.160;11.530;2023-04-28T04:05:51;4.15;;;2.47;;
55148;SDS011;49539;48.160;11.530;2023-04-28T04:08:16;4.10;;;1.98;;
55148;SDS011;49539;48.160;11.530;2023-04-28T04:10:41;3.25;;;1.80;;
55148;SDS011;49539;48.160;11.530;2023-04-28T04:13:07;4.75;;;2.50;;
55148;SDS011;49539;48.160;11.530;2023-04-28T04:15:32;6.90;;;2.60;;
55148;SDS011;49539;48.160;11.530;2023-04-28T04:17:57;6.07;;;1.95;;
55148;SDS011;49539;48.160;11.530;2023-04-28T04:20:22;3.30;;;1.95;;
55148;SDS011;49539;48.160;11.530;2023-04-28T04:22:48;3.45;;;2.20;;
55148;SDS011;49539;48.160;11.530;2023-04-28T04:25:13;4.60;;;2.10;;
55148;SDS011;49539;48.160;11.530;2023-04-28T04:27:38;3.55;;;1.95;;
55148;SDS011;49539;48.160;11.530;2023-04-28T04:30:04;4.20;;;2.23;;
55148;SDS011;49539;48.160;11.530;2023-04-28T04:32:29;3.30;;;2.00;;
55148;SDS011;49539;48.160;11.530;2023-04-28T04:34:55;3.50;;;1.92;;
55148;SDS011;49539;48.160;11.530;2023-04-28T04:37:21;3.53;;;2.15;;
55148;SDS011;49539;48.160;11.530;2023-04-28T04:39:47;3.60;;;1.83;;
55148;SDS011;49539;48.160;11.530;2023-04-28T04:42:12;5.55;;;2.60;;
55148;SDS011;49539;48.160;11.530;2023-04-28T04:44:37;5.03;;;2.05;;
55148;SDS011;49539;48.160;11.530;2023-04-28T04:47:03;4.68;;;2.85;;
55148;SDS011;49539;48.160;11.530;2023-04-28T04:49:28;5.30;;;2.10;;
55148;SDS011;49539;48.160;11.530;2023-04-28T04:51:53;6.82;;;2.28;;
55148;SDS011;49539;48.160;11.530;2023-04-28T04:54:18;3.15;;;1.77;;
55148;SDS011;49539;48.160;11.530;2023-04-28T04:56:44;3.90;;;2.00;;
55148;SDS011;49539;48.160;11.530;2023-04-28T04:59:09;4.97;;;2.30;;
55148;SDS011;49539;48.160;11.530;2023-04-28T05:01:34;3.50;;;2.00;;
55148;SDS011;49539;48.160;11.530;2023-04-28T05:04:00;3.88;;;1.83;;
55148;SDS011;49539;48.160;11.530;2023-04-28T05:06:25;6.43;;;2.50;;
55148;SDS011;49539;48.160;11.530;2023-04-28T05:08:50;4.63;;;2.28;;
55148;SDS011;49539;48.160;11.530;2023-04-28T05:11:15;3.78;;;2.22;;
55148;SDS011;49539;48.160;11.530;2023-04-28T05:13:41;3.58;;;2.22;;
55148;SDS011;49539;48.160;11.530;2023-04-28T05:16:06;3.47;;;2.33;;
55148;SDS011;49539;48.160;11.530;2023-04-28T05:18:31;3.03;;;1.98;;
55148;SDS011;49539;48.160;11.530;2023-04-28T05:20:57;7.55;;;2.75;;
55148;SDS011;49539;48.160;11.530;2023-04-28T05:23:22;4.10;;;2.00;;
55148;SDS011;49539;48.160;11.530;2023-04-28T05:25:48;4.35;;;2.13;;
55148;SDS011;49539;48.160;11.530;2023-04-28T05:28:14;5.38;;;3.17;;
55148;SDS011;49539;48.160;11.530;2023-04-28T05:30:39;4.00;;;2.08;;
55148;SDS011;49539;48.160;11.530;2023-04-28T05:33:05;4.85;;;2.45;;
55148;SDS011;49539;48.160;11.530;2023-04-28T05:35:30;4.63;;;2.38;;
55148;SDS011;49539;48.160;11.530;2023-04-28T05:37:57;3.60;;;2.15;;
55148;SDS011;49539;48.160;11.530;2023-04-28T05:40:22;4.22;;;1.73;;
55148;SDS011;49539;48.160;11.530;2023-04-28T05:42:48;4.35;;;2.53;;
55148;SDS011;49539;48.160;11.530;2023-04-28T05:45:13;2.23;;;1.60;;
55148;SDS011;49539;48.160;11.530;2023-04-28T05:47:39;3.22;;;1.80;;
55148;SDS011;49539;48.160;11.530;2023-04-28T05:50:05;4.03;;;1.85;;
55148;SDS011;49539;48.160;11.530;2023-04-28T05:52:30;4.07;;;2.28;;
55148;SDS011;49539;48.160;11.530;2023-04-28T05:54:55;2.97;;;1.87;;
55148;SDS011;49539;48.160;11.530;2023-04-28T05:57:20;4.05;;;1.88;;
55148;SDS011;49539;48.160;11.530;2023-04-28T05:59:46;3.08;;;1.83;;
55148;SDS011;49539;48.160;11.530;2023-04-28T06:02:11;5.28;;;1.90;;
55148;SDS011;49539;48.160;11.530;2023-04-28T06:04:37;3.08;;;1.77;;
55148;SDS011;49539;48.160;11.530;2023-04-28T06:07:02;3.00;;;1.58;;
55148;SDS011;49539;48.160;11.530;2023-04-28T06:09:28;7.65;;;2.08;;
55148;SDS011;49539;48.160;11.530;2023-04-28T06:11:53;4.15;;;2.08;;
55148;SDS011;49539;48.160;11.530;2023-04-28T06:14:21;5.60;;;1.70;;
55148;SDS011;49539;48.160;11.530;2023-04-28T06:16:46;3.65;;;2.10;;
55148;SDS011;49539;48.160;11.530;2023-04-28T06:19:11;4.05;;;1.90;;
55148;SDS011;49539;48.160;11.530;2023-04-28T06:21:38;3.58;;;1.77;;
55148;SDS011;49539;48.160;11.530;2023-04-28T06:24:03;5.25;;;1.83;;
55148;SDS011;49539;48.160;11.530;2023-04-28T06:26:29;3.20;;;1.60;;
55148;SDS011;49539;48.160;11.530;2023-04-28T06:28:54;3.38;;;1.73;;
55148;SDS011;49539;48.160;11.530;2023-04-28T06:31:21;4.22;;;1.98;;
55148;SDS011;49539;48.160;11.530;2023-04-28T06:33:46;3.70;;;1.63;;
55148;SDS011;49539;48.160;11.530;2023-04-28T06:36:12;2.10;;;1.30;;
55148;SDS011;49539;48.160;11.530;2023-04-28T06:38:38;3.88;;;1.67;;
55148;SDS011;49539;48.160;11.530;2023-04-28T06:41:03;4.60;;;2.15;;
55148;SDS011;49539;48.160;11.530;2023-04-28T06:43:30;4.25;;;1.90;;
55148;SDS011;49539;48.160;11.530;2023-04-28T06:45:56;3.22;;;1.15;;
55148;SDS011;49539;48.160;11.530;2023-04-28T06:48:22;3.13;;;1.55;;
55148;SDS011;49539;48.160;11.530;2023-04-28T06:50:47;1.80;;;1.02;;
55148;SDS011;49539;48.160;11.530;2023-04-28T06:53:12;3.67;;;1.23;;
55148;SDS011;49539;48.160;11.530;2023-04-28T06:55:37;4.27;;;1.53;;
55148;SDS011;49539;48.160;11.530;2023-04-28T06:58:03;8.50;;;2.17;;
55148;SDS011;49539;48.160;11.530;2023-04-28T07:00:28;2.50;;;1.30;;
55148;SDS011;49539;48.160;11.530;2023-04-28T07:02:53;3.55;;;1.02;;
55148;SDS011;49539;48.160;11.530;2023-04-28T07:05:19;2.45;;;1.13;;
55148;SDS011;49539;48.160;11.530;2023-04-28T07:07:44;1.75;;;1.02;;
55148;SDS011;49539;48.160;11.530;2023-04-28T07:10:09;3.40;;;1.30;;
55148;SDS011;49539;48.160;11.530;2023-04-28T07:12:35;2.17;;;1.27;;
55148;SDS011;49539;48.160;11.530;2023-04-28T07:15:01;3.00;;;1.08;;
55148;SDS011;49539;48.160;11.530;2023-04-28T07:17:26;1.83;;;1.10;;
55148;SDS011;49539;48.160;11.530;2023-04-28T07:19:51;3.30;;;0.98;;
55148;SDS011;49539;48.160;11.530;2023-04-28T07:22:16;1.15;;;0.82;;
55148;SDS011;49539;48.160;11.530;2023-04-28T07:24:42;1.02;;;0.75;;
55148;SDS011;49539;48.160;11.530;2023-04-28T07:27:07;6.20;;;0.95;;
55148;SDS011;49539;48.160;11.530;2023-04-28T07:29:33;1.60;;;1.00;;
55148;SDS011;49539;48.160;11.530;2023-04-28T07:31:59;2.58;;;1.15;;
55148;SDS011;49539;48.160;11.530;2023-04-28T07:34:25;7.35;;;1.10;;
55148;SDS011;49539;48.160;11.530;2023-04-28T07:36:51;2.40;;;1.40;;
55148;SDS011;49539;48.160;11.530;2023-04-28T07:39:16;1.60;;;0.98;;
55148;SDS011;49539;48.160;11.530;2023-04-28T07:41:42;2.28;;;1.10;;
55148;SDS011;49539;48.160;11.530;2023-04-28T07:44:07;1.50;;;0.90;;
55148;SDS011;49539;48.160;11.530;2023-04-28T07:46:33;2.25;;;1.33;;
55148;SDS011;49539;48.160;11.530;2023-04-28T07:48:59;3.08;;;1.13;;
55148;SDS011;49539;48.160;11.530;2023-04-28T07:51:24;2.00;;;1.20;;
55148;SDS011;49539;48.160;11.530;2023-04-28T07:53:49;1.98;;;1.13;;
55148;SDS011;49539;48.160;11.530;2023-04-28T07:56:14;2.28;;;1.15;;
55148;SDS011;49539;48.160;11.530;2023-04-28T07:58:40;1.58;;;1.10;;
55148;SDS011;49539;48.160;11.530;2023-04-28T08:01:05;2.55;;;1.30;;
55148;SDS011;49539;48.160;11.530;2023-04-28T08:03:30;3.47;;;1.58;;
55148;SDS011;49539;48.160;11.530;2023-04-28T08:05:56;1.70;;;1.20;;
55148;SDS011;49539;48.160;11.530;2023-04-28T08:08:22;3.58;;;1.30;;
55148;SDS011;49539;48.160;11.530;2023-04-28T08:10:47;4.38;;;1.58;;
55148;SDS011;49539;48.160;11.530;2023-04-28T08:13:14;6.15;;;1.63;;
55148;SDS011;49539;48.160;11.530;2023-04-28T08:15:40;3.95;;;1.60;;
55148;SDS011;49539;48.160;11.530;2023-04-28T08:18:06;2.78;;;1.33;;
55148;SDS011;49539;48.160;11.530;2023-04-28T08:20:31;3.70;;;1.85;;
55148;SDS011;49539;48.160;11.530;2023-04-28T08:22:57;2.83;;;1.52;;
55148;SDS011;49539;48.160;11.530;2023-04-28T08:25:22;2.53;;;1.42;;
55148;SDS011;49539;48.160;11.530;2023-04-28T08:27:47;3.85;;;1.75;;
55148;SDS011;49539;48.160;11.530;2023-04-28T08:30:13;2.33;;;1.40;;
55148;SDS011;49539;48.160;11.530;2023-04-28T08:32:38;2.83;;;1.50;;
55148;SDS011;49539;48.160;11.530;2023-04-28T08:35:04;2.75;;;1.42;;
55148;SDS011;49539;48.160;11.530;2023-04-28T08:37:29;2.83;;;1.63;;
55148;SDS011;49539;48.160;11.530;2023-04-28T08:39:55;4.55;;;1.65;;
55148;SDS011;49539;48.160;11.530;2023-04-28T08:42:29;3.88;;;1.80;;
55148;SDS011;49539;48.160;11.530;2023-04-28T08:44:55;2.80;;;1.58;;
55148;SDS011;49539;48.160;11.530;2023-04-28T08:47:23;2.45;;;1.50;;
55148;SDS011;49539;48.160;11.530;2023-04-28T08:49:52;4.32;;;2.28;;
55148;SDS011;49539;48.160;11.530;2023-04-28T08:52:18;21.73;;;1.98;;
55148;SDS011;49539;48.160;11.530;2023-04-28T08:54:44;3.63;;;1.70;;
55148;SDS011;49539;48.160;11.530;2023-04-28T08:57:12;3.10;;;1.38;;
55148;SDS011;49539;48.160;11.530;2023-04-28T08:59:38;3.47;;;1.77;;
55148;SDS011;49539;48.160;11.530;2023-04-28T09:02:05;1.88;;;1.20;;
55148;SDS011;49539;48.160;11.530;2023-04-28T09:04:31;2.42;;;1.40;;
55148;SDS011;49539;48.160;11.530;2023-04-28T09:06:56;2.30;;;1.20;;
55148;SDS011;49539;48.160;11.530;2023-04-28T09:09:25;3.33;;;1.50;;
55148;SDS011;49539;48.160;11.530;2023-04-28T09:14:23;2.97;;;1.35;;
55148;SDS011;49539;48.160;11.530;2023-04-28T09:16:49;4.03;;;1.80;;
55148;SDS011;49539;48.160;11.530;2023-04-28T09:19:15;2.95;;;1.45;;
55148;SDS011;49539;48.160;11.530;2023-04-28T09:26:51;2.40;;;1.45;;
55148;SDS011;49539;48.160;11.530;2023-04-28T09:29:16;4.57;;;1.13;;
55148;SDS011;49539;48.160;11.530;2023-04-28T09:31:42;1.50;;;1.00;;
55148;SDS011;49539;48.160;11.530;2023-04-28T09:34:07;2.90;;;1.27;;
55148;SDS011;49539;48.160;11.530;2023-04-28T09:36:33;2.45;;;1.23;;
55148;SDS011;49539;48.160;11.530;2023-04-28T09:38:59;4.50;;;1.80;;
55148;SDS011;49539;48.160;11.530;2023-04-28T09:41:37;3.00;;;1.30;;
55148;SDS011;49539;48.160;11.530;2023-04-28T09:44:09;3.85;;;1.83;;
55148;SDS011;49539;48.160;11.530;2023-04-28T09:46:35;2.15;;;1.30;;
55148;SDS011;49539;48.160;11.530;2023-04-28T09:49:00;3.22;;;1.63;;
55148;SDS011;49539;48.160;11.530;2023-04-28T09:51:26;3.38;;;1.30;;
55148;SDS011;49539;48.160;11.530;2023-04-28T09:53:51;3.92;;;1.50;;
55148;SDS011;49539;48.160;11.530;2023-04-28T09:56:18;6.47;;;1.30;;
55148;SDS011;49539;48.160;11.530;2023-04-28T09:58:45;4.22;;;1.10;;
55148;SDS011;49539;48.160;11.530;2023-04-28T10:01:12;6.95;;;1.40;;
55148;SDS011;49539;48.160;11.530;2023-04-28T10:03:37;1.40;;;1.08;;
55148;SDS011;49539;48.160;11.530;2023-04-28T10:06:03;1.52;;;0.98;;
55148;SDS011;49539;48.160;11.530;2023-04-28T10:08:29;2.38;;;1.20;;
55148;SDS011;49539;48.160;11.530;2023-04-28T10:10:55;4.00;;;1.77;;
55148;SDS011;49539;48.160;11.530;2023-04-28T10:13:21;2.17;;;1.08;;
55148;SDS011;49539;48.160;11.530;2023-04-28T10:15:47;1.95;;;1.00;;
55148;SDS011;49539;48.160;11.530;2023-04-28T10:18:12;4.00;;;1.20;;
55148;SDS011;49539;48.160;11.530;2023-04-28T10:20:42;5.32;;;1.15;;
55148;SDS011;49539;48.160;11.530;2023-04-28T10:26:00;2.00;;;0.90;;
55148;SDS011;49539;48.160;11.530;2023-04-28T10:28:26;1.52;;;0.77;;
55148;SDS011;49539;48.160;11.530;2023-04-28T10:31:08;2.35;;;1.10;;
55148;SDS011;49539;48.160;11.530;2023-04-28T10:33:34;1.50;;;0.88;;
55148;SDS011;49539;48.160;11.530;2023-04-28T10:36:01;2.80;;;0.90;;
55148;SDS011;49539;48.160;11.530;2023-04-28T10:38:28;3.42;;;1.15;;
55148;SDS011;49539;48.160;11.530;2023-04-28T10:40:53;2.42;;;0.80;;
55148;SDS011;49539;48.160;11.530;2023-04-28T10:45:57;2.67;;;0.80;;
55148;SDS011;49539;48.160;11.530;2023-04-28T10:58:35;0.98;;;0.68;;
55148;SDS011;49539;48.160;11.530;2023-04-28T11:06:25;3.45;;;1.27;;
55148;SDS011;49539;48.160;11.530;2023-04-28T11:08:55;1.73;;;0.90;;
55148;SDS011;49539;48.160;11.530;2023-04-28T11:11:22;3.80;;;1.15;;
55148;SDS011;49539;48.160;11.530;2023-04-28T11:13:49;2.15;;;0.93;;
55148;SDS011;49539;48.160;11.530;2023-04-28T11:16:16;2.03;;;0.80;;
55148;SDS011;49539;48.160;11.530;2023-04-28T11:18:48;1.40;;;0.65;;
55148;SDS011;49539;48.160;11.530;2023-04-28T11:21:15;1.73;;;0.73;;
55148;SDS011;49539;48.160;11.530;2023-04-28T11:23:41;3.55;;;1.00;;
55148;SDS011;49539;48.160;11.530;2023-04-28T11:26:06;15.80;;;1.67;;
55148;SDS011;49539;48.160;11.530;2023-04-28T11:28:32;2.17;;;0.80;;
55148;SDS011;49539;48.160;11.530;2023-04-28T11:31:10;3.63;;;1.30;;
55148;SDS011;49539;48.160;11.530;2023-04-28T11:33:36;1.70;;;0.80;;
55148;SDS011;49539;48.160;11.530;2023-04-28T11:36:02;3.40;;;1.10;;
55148;SDS011;49539;48.160;11.530;2023-04-28T11:38:28;1.85;;;0.90;;
55148;SDS011;49539;48.160;11.530;2023-04-28T11:40:59;5.43;;;0.95;;
55148;SDS011;49539;48.160;11.530;2023-04-28T11:43:30;0.95;;;0.60;;
55148;SDS011;49539;48.160;11.530;2023-04-28T11:45:56;1.20;;;0.60;;
55148;SDS011;49539;48.160;11.530;2023-04-28T11:48:21;1.90;;;0.90;;
55148;SDS011;49539;48.160;11.530;2023-04-28T11:50:46;2.65;;;1.00;;
55148;SDS011;49539;48.160;11.530;2023-04-28T11:53:12;2.03;;;0.90;;
55148;SDS011;49539;48.160;11.530;2023-04-28T11:55:37;1.60;;;0.70;;
55148;SDS011;49539;48.160;11.530;2023-04-28T12:00:45;0.73;;;0.60;;
55148;SDS011;49539;48.160;11.530;2023-04-28T12:03:30;1.35;;;0.60;;
55148;SDS011;49539;48.160;11.530;2023-04-28T12:05:55;1.45;;;0.70;;
55148;SDS011;49539;48.160;11.530;2023-04-28T12:08:27;1.40;;;1.02;;
55148;SDS011;49539;48.160;11.530;2023-04-28T12:11:06;1.02;;;0.80;;
55148;SDS011;49539;48.160;11.530;2023-04-28T12:13:32;1.83;;;0.80;;
55148;SDS011;49539;48.160;11.530;2023-04-28T12:15:57;1.13;;;0.53;;
55148;SDS011;49539;48.160;11.530;2023-04-28T12:18:25;2.33;;;0.80;;
55148;SDS011;49539;48.160;11.530;2023-04-28T12:20:51;3.08;;;1.10;;
55148;SDS011;49539;48.160;11.530;2023-04-28T12:23:27;8.85;;;1.08;;
55148;SDS011;49539;48.160;11.530;2023-04-28T12:25:53;1.65;;;1.05;;
55148;SDS011;49539;48.160;11.530;2023-04-28T12:28:18;2.50;;;0.88;;
55148;SDS011;49539;48.160;11.530;2023-04-28T12:30:43;3.05;;;1.77;;
55148;SDS011;49539;48.160;11.530;2023-04-28T12:35:48;1.48;;;1.02;;
55148;SDS011;49539;48.160;11.530;2023-04-28T12:38:14;0.98;;;0.60;;
55148;SDS011;49539;48.160;11.530;2023-04-28T12:40:40;1.77;;;0.95;;
55148;SDS011;49539;48.160;11.530;2023-04-28T12:43:06;1.53;;;0.70;;
55148;SDS011;49539;48.160;11.530;2023-04-28T12:45:31;1.15;;;0.85;;
55148;SDS011;49539;48.160;11.530;2023-04-28T12:47:56;2.25;;;0.77;;
55148;SDS011;49539;48.160;11.530;2023-04-28T12:50:22;2.17;;;0.82;;
55148;SDS011;49539;48.160;11.530;2023-04-28T12:52:48;2.22;;;0.88;;
55148;SDS011;49539;48.160;11.530;2023-04-28T12:55:13;1.52;;;0.82;;
55148;SDS011;49539;48.160;11.530;2023-04-28T12:57:39;1.02;;;0.65;;
55148;SDS011;49539;48.160;11.530;2023-04-28T13:00:04;1.60;;;0.70;;
55148;SDS011;49539;48.160;11.530;2023-04-28T13:02:31;1.55;;;0.90;;
55148;SDS011;49539;48.160;11.530;2023-04-28T13:04:57;1.67;;;0.85;;
55148;SDS011;49539;48.160;11.530;2023-04-28T13:07:22;2.47;;;0.90;;
55148;SDS011;49539;48.160;11.530;2023-04-28T13:09:47;1.35;;;0.73;;
55148;SDS011;49539;48.160;11.530;2023-04-28T13:12:12;3.25;;;0.80;;
55148;SDS011;49539;48.160;11.530;2023-04-28T13:14:38;1.38;;;0.90;;
55148;SDS011;49539;48.160;11.530;2023-04-28T13:17:03;1.97;;;1.10;;
55148;SDS011;49539;48.160;11.530;2023-04-28T13:19:29;1.67;;;0.75;;
55148;SDS011;49539;48.160;11.530;2023-04-28T13:21:55;1.42;;;0.65;;
55148;SDS011;49539;48.160;11.530;2023-04-28T13:24:20;1.83;;;0.80;;
55148;SDS011;49539;48.160;11.530;2023-04-28T13:26:46;1.42;;;0.70;;
55148;SDS011;49539;48.160;11.530;2023-04-28T13:29:11;1.40;;;0.75;;
55148;SDS011;49539;48.160;11.530;2023-04-28T13:31:36;0.85;;;0.63;;
55148;SDS011;49539;48.160;11.530;2023-04-28T13:34:02;8.82;;;0.90;;
55148;SDS011;49539;48.160;11.530;2023-04-28T13:36:29;1.65;;;0.70;;
55148;SDS011;49539;48.160;11.530;2023-04-28T13:38:55;1.50;;;0.65;;
55148;SDS011;49539;48.160;11.530;2023-04-28T13:41:20;1.83;;;0.82;;
55148;SDS011;49539;48.160;11.530;2023-04-28T13:43:46;1.73;;;0.60;;
55148;SDS011;49539;48.160;11.530;2023-04-28T13:46:11;3.78;;;0.50;;
55148;SDS011;49539;48.160;11.530;2023-04-28T13:48:37;1.83;;;0.60;;
55148;SDS011;49539;48.160;11.530;2023-04-28T13:51:03;1.00;;;0.60;;
55148;SDS011;49539;48.160;11.530;2023-04-28T13:53:29;1.02;;;0.50;;
55148;SDS011;49539;48.160;11.530;2023-04-28T13:55:54;0.98;;;0.52;;
55148;SDS011;49539;48.160;11.530;2023-04-28T13:58:22;0.52;;;0.45;;
55148;SDS011;49539;48.160;11.530;2023-04-28T14:00:47;1.10;;;0.65;;
55148;SDS011;49539;48.160;11.530;2023-04-28T14:03:12;0.93;;;0.47;;
55148;SDS011;49539;48.160;11.530;2023-04-28T14:05:38;1.38;;;0.68;;
55148;SDS011;49539;48.160;11.530;2023-04-28T14:08:03;1.05;;;0.47;;
55148;SDS011;49539;48.160;11.530;2023-04-28T14:10:29;0.68;;;0.60;;
55148;SDS011;49539;48.160;11.530;2023-04-28T14:12:54;0.82;;;0.38;;
55148;SDS011;49539;48.160;11.530;2023-04-28T14:15:20;0.40;;;0.40;;
55148;SDS011;49539;48.160;11.530;2023-04-28T14:17:46;2.60;;;0.40;;
55148;SDS011;49539;48.160;11.530;2023-04-28T14:20:12;1.58;;;0.40;;
55148;SDS011;49539;48.160;11.530;2023-04-28T14:22:38;0.65;;;0.40;;
55148;SDS011;49539;48.160;11.530;2023-04-28T14:25:04;0.73;;;0.30;;
55148;SDS011;49539;48.160;11.530;2023-04-28T14:27:29;0.75;;;0.35;;
55148;SDS011;49539;48.160;11.530;2023-04-28T14:29:54;1.40;;;0.50;;
55148;SDS011;49539;48.160;11.530;2023-04-28T14:32:20;0.85;;;0.40;;
55148;SDS011;49539;48.160;11.530;2023-04-28T14:34:48;0.60;;;0.50;;
55148;SDS011;49539;48.160;11.530;2023-04-28T14:37:14;0.40;;;0.30;;
55148;SDS011;49539;48.160;11.530;2023-04-28T14:39:41;0.40;;;0.30;;
55148;SDS011;49539;48.160;11.530;2023-04-28T14:42:06;0.43;;;0.30;;
55148;SDS011;49539;48.160;11.530;2023-04-28T14:44:32;0.80;;;0.40;;
55148;SDS011;49539;48.160;11.530;2023-04-28T14:46:58;2.00;;;0.40;;
55148;SDS011;49539;48.160;11.530;2023-04-28T14:49:23;0.75;;;0.60;;
55148;SDS011;49539;48.160;11.530;2023-04-28T14:51:50;1.40;;;0.30;;
55148;SDS011;49539;48.160;11.530;2023-04-28T14:54:16;0.95;;;0.63;;
55148;SDS011;49539;48.160;11.530;2023-04-28T14:56:41;1.17;;;0.52;;
55148;SDS011;49539;48.160;11.530;2023-04-28T14:59:07;1.60;;;0.60;;
55148;SDS011;49539;48.160;11.530;2023-04-28T15:01:32;2.20;;;0.75;;